Terminal Aerodrome Forecast
Issued by NWS Quad Cities IA IL

Home | Current Version | Previous Version | Text Only | Print | Product List | Glossary On
Versions: 1 2 3 4 5 6 7 8 9 10 11 12 13 14 15 16 17 18 19 20 21 22 23 24 25 26
250
FTUS43 KDVN 291246 AAB
TAFDBQ
TAF AMD
KDBQ 291246Z 2913/3012 36011KT P6SM SCT010
     FM291500 01016G24KT P6SM SCT015 BKN035
     FM300000 02010KT P6SM BKN040
     FM300800 01009KT P6SM SCT015 BKN025=

USA.gov is the U.S. government's official web portal to all federal, state and local government web resources and services.